createdAt,value
2022-10-30T00:04:21.694Z,89.18
2022-10-30T00:09:23.243Z,89.51
2022-10-30T00:14:24.782Z,89.67
2022-10-30T00:19:26.319Z,89.42
2022-10-30T00:24:27.842Z,89.55
2022-10-30T00:29:29.384Z,89.52
2022-10-30T00:34:31.595Z,89.40
2022-10-30T00:39:33.255Z,89.58
2022-10-30T00:44:45.016Z,89.43
2022-10-30T00:49:58.589Z,89.57
2022-10-30T00:55:06.121Z,89.46
2022-10-30T01:00:08.666Z,89.54
2022-10-30T01:05:15.252Z,89.35
2022-10-30T01:10:18.173Z,89.31
2022-10-30T01:15:28.341Z,89.28
2022-10-30T01:21:10.580Z,89.73
2022-10-30T01:26:17.862Z,89.96
2022-10-30T01:32:01.217Z,90.23
2022-10-30T01:37:20.646Z,90.14
2022-10-30T01:42:48.894Z,90.16
2022-10-30T01:48:04.072Z,90.21
2022-10-30T01:53:20.314Z,90.05
2022-10-30T01:58:34.881Z,90.58
2022-10-30T02:03:36.514Z,90.65
2022-10-30T02:08:38.055Z,90.25
2022-10-30T02:13:39.881Z,90.14
2022-10-30T02:18:41.762Z,89.71
2022-10-30T02:23:43.464Z,89.69
2022-10-30T02:28:45.018Z,89.65
2022-10-30T02:33:47.179Z,89.60
2022-10-30T02:38:48.783Z,89.55
2022-10-30T02:43:53.647Z,89.37
2022-10-30T02:48:55.187Z,90.16
2022-10-30T02:53:56.727Z,90.89
2022-10-30T02:58:58.289Z,91.11
2022-10-30T03:03:59.877Z,91.01
2022-10-30T03:09:01.638Z,90.62
2022-10-30T03:14:03.190Z,90.34
2022-10-30T03:19:05.389Z,90.46
2022-10-30T03:24:07.059Z,89.95
2022-10-30T03:29:08.610Z,89.78
2022-10-30T03:34:10.205Z,90.08
2022-10-30T03:39:11.743Z,89.87
2022-10-30T03:44:13.652Z,89.57
2022-10-30T03:49:15.531Z,89.49
2022-10-30T03:54:17.171Z,89.37
2022-10-30T03:59:18.719Z,89.25
2022-10-30T04:04:20.266Z,89.32
2022-10-30T04:09:21.811Z,89.35
2022-10-30T04:14:23.374Z,88.89
2022-10-30T04:19:24.908Z,89.11
2022-10-30T04:24:26.447Z,89.05
2022-10-30T04:29:28.017Z,88.93
2022-10-30T04:34:29.648Z,88.96
2022-10-30T04:39:31.515Z,88.95
2022-10-30T04:44:33.058Z,88.95
2022-10-30T04:49:34.626Z,89.15
2022-10-30T04:54:36.160Z,89.11
2022-10-30T04:59:37.719Z,89.27
2022-10-30T05:04:39.299Z,89.32
2022-10-30T05:09:40.944Z,89.10
2022-10-30T05:14:42.488Z,89.06
2022-10-30T05:19:44.022Z,88.88
2022-10-30T05:24:45.550Z,88.99
2022-10-30T05:29:47.099Z,88.76
2022-10-30T05:34:48.631Z,88.31
2022-10-30T05:39:50.161Z,88.42
2022-10-30T05:45:01.325Z,88.39
2022-10-30T05:50:04.918Z,88.23
2022-10-30T05:55:06.823Z,88.56
2022-10-30T06:00:09.113Z,89.15
2022-10-30T06:05:10.675Z,89.71
2022-10-30T06:10:12.228Z,89.54
2022-10-30T06:15:13.859Z,89.56
2022-10-30T06:20:16.914Z,89.60
2022-10-30T06:25:18.460Z,90.13
2022-10-30T06:30:20.663Z,89.95
2022-10-30T06:35:22.225Z,89.71
2022-10-30T06:40:24.044Z,89.73
2022-10-30T06:45:25.946Z,90.53
2022-10-30T06:50:27.548Z,90.90
2022-10-30T06:55:29.098Z,91.05
2022-10-30T07:00:30.700Z,91.14
2022-10-30T07:05:32.614Z,91.05
2022-10-30T07:10:34.442Z,90.56
2022-10-30T07:15:36.279Z,89.08
2022-10-30T07:20:37.905Z,89.66
2022-10-30T07:25:39.448Z,90.07
2022-10-30T07:30:41.057Z,89.88
2022-10-30T07:35:42.655Z,89.76
2022-10-30T07:40:44.510Z,89.60
2022-10-30T07:45:46.480Z,89.38
2022-10-30T07:50:48.099Z,88.92
2022-10-30T07:55:49.634Z,87.85
2022-10-30T08:00:51.254Z,86.87
2022-10-30T08:05:52.777Z,87.05
2022-10-30T08:10:54.310Z,86.60
2022-10-30T08:15:55.837Z,85.63
2022-10-30T08:20:57.412Z,85.55
2022-10-30T08:26:01.847Z,85.57
2022-10-30T08:31:04.021Z,85.38
2022-10-30T08:36:07.349Z,84.69
2022-10-30T08:41:08.986Z,83.73
2022-10-30T08:46:10.547Z,84.40
2022-10-30T08:51:12.283Z,84.14
2022-10-30T08:56:14.187Z,83.60
2022-10-30T09:01:15.817Z,83.01
2022-10-30T09:06:17.467Z,82.98
2022-10-30T09:11:19.030Z,82.09
2022-10-30T09:16:20.724Z,81.66
2022-10-30T09:21:22.292Z,81.01
2022-10-30T09:26:23.827Z,80.32
2022-10-30T09:31:25.374Z,79.09
2022-10-30T09:36:26.912Z,77.78
2022-10-30T09:41:40.561Z,76.36
2022-10-30T09:47:05.522Z,75.73
2022-10-30T09:52:25.823Z,75.23
2022-10-30T09:58:02.532Z,74.03
2022-10-30T10:03:30.950Z,74.57
2022-10-30T10:08:39.834Z,74.68
2022-10-30T10:13:48.297Z,74.74
2022-10-30T10:19:02.874Z,72.48
2022-10-30T10:24:11.748Z,73.29
2022-10-30T10:29:28.247Z,74.28
2022-10-30T10:34:39.162Z,73.22
2022-10-30T10:40:11.688Z,73.13
2022-10-30T10:45:26.701Z,72.33
2022-10-30T10:50:28.200Z,73.55
2022-10-30T10:55:36.371Z,73.52
2022-10-30T11:00:38.248Z,72.55
2022-10-30T11:05:48.873Z,72.28
2022-10-30T11:10:58.335Z,72.38
2022-10-30T11:16:14.945Z,70.60
2022-10-30T11:21:21.682Z,71.69
2022-10-30T11:26:28.420Z,70.20
2022-10-30T11:31:37.839Z,71.04
2022-10-30T11:36:39.467Z,71.24
2022-10-30T11:41:41.053Z,71.52
2022-10-30T11:46:42.874Z,71.04
2022-10-30T11:51:47.847Z,71.16
2022-10-30T11:56:50.737Z,68.90
2022-10-30T12:02:27.095Z,69.33
2022-10-30T12:07:33.178Z,68.63
2022-10-30T12:12:42.606Z,67.55
2022-10-30T12:18:05.381Z,65.85
2022-10-30T12:23:12.717Z,68.02
2022-10-30T12:28:18.294Z,68.16
2022-10-30T12:33:25.925Z,64.26
2022-10-30T12:38:36.521Z,66.85
2022-10-30T12:43:41.714Z,66.50
2022-10-30T12:48:52.848Z,67.07
2022-10-30T12:54:00.847Z,66.93
2022-10-30T12:59:11.926Z,67.08
2022-10-30T13:04:25.845Z,67.37
2022-10-30T13:09:44.887Z,66.93
2022-10-30T13:14:55.696Z,67.02
2022-10-30T13:19:57.283Z,67.17
2022-10-30T13:25:21.293Z,67.93
2022-10-30T13:30:26.013Z,68.09
2022-10-30T13:35:33.096Z,68.27
2022-10-30T13:40:43.327Z,68.28
2022-10-30T13:45:44.825Z,68.43
2022-10-30T13:51:04.830Z,68.63
2022-10-30T13:56:12.923Z,68.68
2022-10-30T14:01:32.044Z,68.79
2022-10-30T14:06:54.769Z,68.40
2022-10-30T14:11:56.316Z,68.57
2022-10-30T14:17:18.149Z,68.56
2022-10-30T14:22:24.868Z,69.00
2022-10-30T14:27:31.729Z,68.90
2022-10-30T14:32:38.191Z,68.79
2022-10-30T14:37:39.787Z,68.91
2022-10-30T14:42:51.131Z,69.35
2022-10-30T14:48:16.499Z,70.08
2022-10-30T14:53:54.450Z,70.46
2022-10-30T14:59:11.270Z,70.96
2022-10-30T15:04:24.318Z,71.26
2022-10-30T15:10:01.836Z,71.80
2022-10-30T15:15:07.143Z,72.32
2022-10-30T15:20:19.428Z,72.98
2022-10-30T15:25:23.972Z,72.97
2022-10-30T15:30:27.339Z,73.39
2022-10-30T15:35:29.348Z,73.71
2022-10-30T15:40:31.703Z,74.46
2022-10-30T15:45:39.152Z,75.47
2022-10-30T15:50:44.577Z,76.21
2022-10-30T15:55:46.838Z,76.83
2022-10-30T16:00:57.301Z,77.67
2022-10-30T16:06:12.460Z,78.39
2022-10-30T16:11:15.670Z,78.75
2022-10-30T16:16:29.257Z,79.33
2022-10-30T16:21:31.624Z,79.65
2022-10-30T16:26:36.108Z,79.96
2022-10-30T16:31:38.214Z,80.39
2022-10-30T16:36:41.391Z,80.63
2022-10-30T16:41:44.296Z,80.98
2022-10-30T16:46:55.139Z,81.54
2022-10-30T16:52:04.480Z,82.03
2022-10-30T16:57:16.972Z,82.39
2022-10-30T17:02:26.350Z,82.77
2022-10-30T17:07:28.069Z,82.83
2022-10-30T17:12:30.004Z,83.14
2022-10-30T17:17:33.315Z,83.29
2022-10-30T17:22:35.008Z,83.67
2022-10-30T17:27:46.804Z,83.74
2022-10-30T17:32:54.270Z,84.15
2022-10-30T17:37:58.479Z,84.79
2022-10-30T17:43:03.312Z,84.92
2022-10-30T17:48:12.739Z,85.65
2022-10-30T17:53:18.399Z,86.17
2022-10-30T17:58:19.939Z,86.38
2022-10-30T18:03:21.538Z,86.91
2022-10-30T18:08:23.133Z,87.18
2022-10-30T18:13:24.738Z,87.21
2022-10-30T18:18:26.309Z,87.31
2022-10-30T18:28:49.646Z,87.45
2022-10-30T18:33:51.782Z,87.61
2022-10-30T18:38:54.599Z,87.49
2022-10-30T18:43:56.212Z,87.48
2022-10-30T18:48:58.110Z,87.31
2022-10-30T18:54:00.086Z,87.71
2022-10-30T18:59:02.733Z,87.90
2022-10-30T19:04:09.276Z,88.05
2022-10-30T19:09:10.867Z,88.14
2022-10-30T19:14:13.801Z,87.98
2022-10-30T19:19:15.350Z,88.12
2022-10-30T19:24:17.854Z,88.25
2022-10-30T19:29:19.461Z,88.52
2022-10-30T19:34:21.018Z,88.69
2022-10-30T19:39:22.547Z,88.28
2022-10-30T19:44:24.076Z,88.35
2022-10-30T19:49:25.613Z,87.96
2022-10-30T19:54:27.163Z,87.87
2022-10-30T19:59:28.789Z,87.62
2022-10-30T20:04:30.337Z,87.87
2022-10-30T20:09:32.072Z,87.93
2022-10-30T20:14:33.751Z,87.67
2022-10-30T20:19:35.374Z,87.69
2022-10-30T20:24:36.911Z,87.63
2022-10-30T20:29:40.101Z,87.53
2022-10-30T20:34:41.659Z,87.33
2022-10-30T20:39:43.232Z,87.20
2022-10-30T20:44:46.703Z,87.16
2022-10-30T20:49:48.301Z,87.01
2022-10-30T20:54:49.922Z,87.15
2022-10-30T20:59:51.566Z,87.31
2022-10-30T21:04:53.204Z,87.17
2022-10-30T21:09:54.741Z,87.13
2022-10-30T21:14:56.301Z,87.17
2022-10-30T21:19:57.953Z,87.12
2022-10-30T21:24:59.698Z,87.59
2022-10-30T21:30:01.331Z,87.41
2022-10-30T21:35:02.996Z,87.51
2022-10-30T21:40:05.073Z,87.38
2022-10-30T21:45:07.346Z,87.42
2022-10-30T21:50:12.159Z,87.33
2022-10-30T21:55:14.385Z,87.31
2022-10-30T22:00:16.381Z,87.35
2022-10-30T22:05:17.983Z,87.35
2022-10-30T22:10:20.419Z,87.39
2022-10-30T22:15:21.962Z,87.43
2022-10-30T22:20:23.518Z,87.34
2022-10-30T22:25:25.053Z,87.80
2022-10-30T22:30:26.643Z,87.80
2022-10-30T22:35:28.186Z,87.82
2022-10-30T22:40:29.732Z,87.81
2022-10-30T22:45:31.404Z,87.54
2022-10-30T22:50:32.950Z,87.50
2022-10-30T22:55:34.493Z,87.51
2022-10-30T23:00:36.040Z,87.47
2022-10-30T23:05:37.642Z,87.43
2022-10-30T23:10:39.210Z,87.38
2022-10-30T23:15:40.788Z,87.37
2022-10-30T23:20:44.194Z,87.39
2022-10-30T23:25:45.751Z,87.12
2022-10-30T23:30:47.447Z,87.11
2022-10-30T23:35:49.005Z,87.34
2022-10-30T23:40:50.559Z,87.74
2022-10-30T23:45:52.110Z,87.86
2022-10-30T23:50:53.683Z,88.02
2022-10-30T23:55:55.451Z,88.27
